Time;durP1;ratioP1;P1;durP2;ratioP2;P2;SDS_P1;SDS_P2;PMS_P1;PMS_P2;Temp;Humidity;BMP_temperature;BMP_pressure;BME280_temperature;BME280_humidity;BME280_pressure;Samples;Min_cycle;Max_cycle;Signal;HPM_P1;HPM_P2
2023/06/11 00:00:00;;;;;;;9.93;9.02;;;;;;;18.54;78.95;101113.53;6235860;23;20016;-80
2023/06/11 00:02:32;;;;;;;12.40;9.13;;;;;;;18.48;79.37;101118.13;6213823;23;20023;-81
2023/06/11 00:04:59;;;;;;;13.93;9.38;;;;;;;18.44;79.61;101123.59;6214854;23;20020;-82
2023/06/11 00:07:27;;;;;;;9.48;8.50;;;;;;;18.39;79.41;101120.25;6238379;23;20020;-86
2023/06/11 00:09:54;;;;;;;10.32;9.32;;;;;;;18.38;79.44;101122.00;6238410;23;20020;-82
2023/06/11 00:12:20;;;;;;;8.40;7.68;;;;;;;18.37;79.17;101125.59;6213098;23;20073;-80
2023/06/11 00:14:47;;;;;;;8.52;7.57;;;;;;;18.39;79.03;101130.84;6214266;23;20073;-80
2023/06/11 00:17:13;;;;;;;8.70;7.97;;;;;;;18.36;79.44;101118.56;6240643;23;20062;-80
2023/06/11 00:19:40;;;;;;;8.38;7.53;;;;;;;18.38;79.32;101123.81;6238936;22;20020;-87
2023/06/11 00:22:08;;;;;;;9.27;8.50;;;;;;;18.35;79.02;101127.44;6239245;23;20027;-80
2023/06/11 00:24:35;;;;;;;9.82;7.43;;;;;;;18.31;79.10;101128.47;6238785;23;20071;-82
2023/06/11 00:27:02;;;;;;;11.32;8.60;;;;;;;18.24;79.27;101124.25;6239968;23;20020;-80
2023/06/11 00:29:29;;;;;;;9.95;8.05;;;;;;;18.18;79.44;101114.75;6239660;23;20066;-83
2023/06/11 00:31:55;;;;;;;10.85;8.27;;;;;;;18.11;79.55;101121.19;6240214;23;20376;-82
2023/06/11 00:34:22;;;;;;;9.20;7.55;;;;;;;18.04;79.57;101125.78;6215122;23;20289;-81
2023/06/11 00:36:48;;;;;;;9.73;8.48;;;;;;;17.97;80.00;101129.56;6214481;23;20020;-83
2023/06/11 00:39:15;;;;;;;9.02;8.07;;;;;;;17.86;80.17;101120.16;6236850;23;20024;-83
2023/06/11 00:41:45;;;;;;;8.82;7.90;;;;;;;17.78;80.41;101122.19;6229042;23;20527;-85
2023/06/11 00:44:17;;;;;;;9.88;8.82;;;;;;;17.72;80.88;101125.03;6234619;23;20026;-89
2023/06/11 00:46:47;;;;;;;10.20;8.00;;;;;;;17.65;81.28;101124.34;6236414;23;20020;-83
2023/06/11 00:49:14;;;;;;;10.55;8.05;;;;;;;17.58;81.58;101120.16;6237849;23;20194;-87
2023/06/11 00:51:46;;;;;;;8.25;7.43;;;;;;;17.52;82.03;101131.81;6211982;23;20339;-81
2023/06/11 00:54:16;;;;;;;9.73;8.18;;;;;;;17.47;82.15;101132.81;6236975;23;20028;-80
2023/06/11 00:56:46;;;;;;;10.23;7.85;;;;;;;17.44;82.22;101130.28;6233504;22;20025;-79
2023/06/11 00:59:15;;;;;;;9.30;7.63;;;;;;;17.38;82.53;101128.69;6233355;23;20020;-82
2023/06/11 01:01:57;;;;;;;9.43;7.80;;;;;;;17.34;83.31;101127.06;6237563;23;20024;-80
2023/06/11 01:04:29;;;;;;;11.00;7.70;;;;;;;17.28;83.08;101130.72;6237769;23;20443;-81
2023/06/11 01:07:01;;;;;;;8.52;7.60;;;;;;;17.24;83.17;101130.88;6238534;23;20024;-84
2023/06/11 01:09:28;;;;;;;8.80;7.90;;;;;;;17.23;83.34;101131.78;6211191;23;20016;-79
2023/06/11 01:11:58;;;;;;;10.25;7.40;;;;;;;17.20;83.49;101136.25;6210361;23;20422;-83
2023/06/11 01:14:26;;;;;;;9.52;7.28;;;;;;;17.17;83.17;101132.84;6234015;23;20016;-82
2023/06/11 01:17:06;;;;;;;11.05;7.63;;;;;;;17.12;83.35;101129.47;6208965;23;20020;-85
2023/06/11 01:20:03;;;;;;;11.95;8.38;;;;;;;17.08;83.99;101128.69;6235056;22;20016;-79
2023/06/11 01:22:49;;;;;;;9.93;7.03;;;;;;;17.00;83.70;101130.66;6235866;23;20056;-84
2023/06/11 01:25:38;;;;;;;8.75;6.90;;;;;;;16.96;84.15;101129.91;6236465;23;20078;-85
2023/06/11 01:28:09;;;;;;;7.03;6.32;;;;;;;16.89;83.88;101130.06;6237120;23;20027;-80
2023/06/11 01:30:45;;;;;;;8.65;6.05;;;;;;;16.87;84.22;101130.97;6235225;23;20660;-81
2023/06/11 01:33:13;;;;;;;7.45;6.32;;;;;;;16.84;84.05;101143.41;6235078;23;20028;-81
2023/06/11 01:35:41;;;;;;;7.40;5.70;;;;;;;16.80;83.78;101141.75;6237913;23;20436;-79
2023/06/11 01:38:08;;;;;;;7.78;6.10;;;;;;;16.78;84.28;101141.81;6239283;23;20130;-80
2023/06/11 01:40:35;;;;;;;10.18;6.53;;;;;;;16.75;84.10;101143.66;6234573;23;20189;-80
2023/06/11 01:43:02;;;;;;;9.70;5.50;;;;;;;16.68;84.38;101143.81;6238330;23;20023;-84
2023/06/11 01:45:32;;;;;;;8.85;6.00;;;;;;;16.66;84.56;101144.75;6238546;23;20042;-81
2023/06/11 01:47:59;;;;;;;8.15;6.38;;;;;;;16.63;84.15;101151.00;6214137;23;20431;-81
2023/06/11 01:50:26;;;;;;;7.28;6.10;;;;;;;16.59;84.56;101149.34;6237651;23;20074;-82
2023/06/11 01:52:52;;;;;;;7.47;6.43;;;;;;;16.53;84.36;101145.09;6213931;23;20016;-82
2023/06/11 01:55:19;;;;;;;10.02;5.80;;;;;;;16.50;84.52;101145.19;6238222;23;20024;-90
2023/06/11 01:57:46;;;;;;;16.23;6.80;;;;;;;16.45;85.01;101148.84;6239351;23;20444;-78
2023/06/11 02:00:15;;;;;;;7.43;5.63;;;;;;;16.42;85.09;101149.78;6214161;23;20026;-79
2023/06/11 02:02:45;;;;;;;8.98;6.20;;;;;;;16.40;85.20;101148.97;6210308;23;20273;-81
2023/06/11 02:05:11;;;;;;;7.07;5.45;;;;;;;16.37;84.70;101149.03;6211016;23;21010;-80
2023/06/11 02:07:38;;;;;;;7.00;5.22;;;;;;;16.34;85.23;101152.63;6188602;23;20024;-80
2023/06/11 02:10:05;;;;;;;8.93;6.05;;;;;;;16.31;84.98;101144.78;6238764;23;20064;-79
2023/06/11 02:12:31;;;;;;;8.23;5.82;;;;;;;16.28;85.18;101141.34;6239085;23;20012;-80
2023/06/11 02:14:58;;;;;;;7.55;5.78;;;;;;;16.26;85.25;101137.88;6239350;23;20016;-79
2023/06/11 02:17:25;;;;;;;8.65;5.40;;;;;;;16.22;85.40;101139.72;6237439;23;20026;-85
2023/06/11 02:19:51;;;;;;;7.00;5.63;;;;;;;16.20;84.86;101144.16;6237110;22;20038;-80
2023/06/11 02:22:18;;;;;;;7.35;5.45;;;;;;;16.17;85.22;101149.53;6239294;22;20020;-80
2023/06/11 02:24:44;;;;;;;8.40;5.95;;;;;;;16.15;85.16;101149.59;6239089;22;20043;-79
2023/06/11 02:27:11;;;;;;;9.63;5.28;;;;;;;16.14;85.35;101152.22;6236556;23;20023;-78
2023/06/11 02:29:37;;;;;;;10.98;6.03;;;;;;;16.11;85.49;101152.31;6238041;22;20023;-83
2023/06/11 02:32:06;;;;;;;7.13;5.28;;;;;;;16.08;85.58;101153.25;6237981;23;20016;-79
2023/06/11 02:34:33;;;;;;;8.07;5.60;;;;;;;16.08;85.49;101149.78;6237091;23;20023;-79
2023/06/11 02:36:59;;;;;;;8.38;5.47;;;;;;;16.04;85.42;101147.19;6236831;23;20416;-83
2023/06/11 02:39:26;;;;;;;6.10;5.20;;;;;;;16.01;85.22;101147.25;6235795;23;20700;-87
2023/06/11 02:41:52;;;;;;;8.48;6.10;;;;;;;15.95;85.41;101147.41;6233412;22;20016;-80
2023/06/11 02:44:19;;;;;;;5.32;4.82;;;;;;;15.92;85.45;101150.13;6237344;23;20020;-80
2023/06/11 02:46:47;;;;;;;8.50;6.05;;;;;;;15.90;85.84;101149.28;6211797;23;20034;-83
2023/06/11 02:49:13;;;;;;;10.60;5.15;;;;;;;15.87;85.66;101146.72;6210627;23;20069;-89
2023/06/11 02:51:40;;;;;;;6.95;5.18;;;;;;;15.83;85.64;101152.97;6238290;22;20020;-79
2023/06/11 02:54:06;;;;;;;8.07;5.00;;;;;;;15.83;85.53;101158.25;6239078;22;20458;-84
2023/06/11 02:56:33;;;;;;;5.40;4.90;;;;;;;15.80;85.55;101156.53;6236775;23;20024;-80
2023/06/11 02:59:00;;;;;;;10.85;5.55;;;;;;;15.77;86.21;101161.00;6235979;23;20027;-79
2023/06/11 03:01:26;;;;;;;6.95;4.72;;;;;;;15.75;85.73;101158.41;6235791;23;20020;-83
2023/06/11 03:03:53;;;;;;;9.70;6.10;;;;;;;15.75;85.95;101163.69;6237080;23;20039;-82
2023/06/11 03:06:19;;;;;;;10.55;4.80;;;;;;;15.73;85.86;101159.34;6232389;22;20086;-80
2023/06/11 03:08:46;;;;;;;5.88;5.00;;;;;;;15.69;86.12;101156.75;6232239;23;20012;-79
2023/06/11 03:11:12;;;;;;;8.43;5.32;;;;;;;15.71;85.85;101159.38;6211396;23;20020;-80
2023/06/11 03:13:39;;;;;;;9.65;5.82;;;;;;;15.70;85.85;101160.28;6232327;23;20030;-85
2023/06/11 03:16:05;;;;;;;5.13;4.38;;;;;;;15.68;85.36;101154.16;6233612;23;20026;-83
2023/06/11 03:18:31;;;;;;;7.10;5.43;;;;;;;15.64;85.63;101158.63;6233576;22;20015;-83
2023/06/11 03:20:58;;;;;;;5.95;4.60;;;;;;;15.63;85.32;101159.53;6207721;23;20024;-79
2023/06/11 03:23:24;;;;;;;8.68;4.50;;;;;;;15.63;85.59;101161.28;6205232;23;20502;-79
2023/06/11 03:25:51;;;;;;;8.80;4.88;;;;;;;15.60;85.54;101158.72;6156789;23;20031;-79
2023/06/11 03:28:17;;;;;;;11.02;5.68;;;;;;;15.59;86.11;101157.00;6181449;23;20016;-88
2023/06/11 03:30:44;;;;;;;6.15;4.50;;;;;;;15.58;85.53;101165.81;6206955;23;20293;-84
2023/06/11 03:33:10;;;;;;;9.88;4.40;;;;;;;15.61;85.25;101160.47;6181268;23;20021;-79
2023/06/11 03:35:37;;;;;;;6.78;4.55;;;;;;;15.57;85.45;101164.94;6180891;23;20467;-81
2023/06/11 03:38:03;;;;;;;8.45;4.53;;;;;;;15.56;85.36;101163.19;6181559;23;20454;-79
2023/06/11 03:40:29;;;;;;;8.25;4.55;;;;;;;15.53;85.20;101163.28;6202937;23;20428;-81
2023/06/11 03:42:56;;;;;;;4.88;4.35;;;;;;;15.53;85.44;101161.50;6182880;23;20017;-81
2023/06/11 03:45:22;;;;;;;9.57;4.95;;;;;;;15.52;85.10;101154.47;6180989;23;20120;-88
2023/06/11 03:47:52;;;;;;;10.50;4.60;;;;;;;15.52;84.96;101156.25;6156021;23;20668;-79
2023/06/11 03:50:18;;;;;;;5.20;4.78;;;;;;;15.54;84.92;101160.59;6181557;23;20028;-80
2023/06/11 03:52:44;;;;;;;8.13;4.95;;;;;;;15.54;84.94;101159.75;6181717;23;20021;-83
2023/06/11 03:55:11;;;;;;;7.82;4.18;;;;;;;15.54;84.61;101163.25;6182450;23;20016;-78
2023/06/11 03:57:37;;;;;;;5.78;4.75;;;;;;;15.55;84.63;101161.47;6182556;23;20019;-80
2023/06/11 04:00:06;;;;;;;5.90;4.28;;;;;;;15.58;84.28;101163.16;6183677;23;20139;-84
2023/06/11 04:02:32;;;;;;;6.70;3.75;;;;;;;15.60;84.09;101159.59;6182444;23;20020;-79
2023/06/11 04:04:59;;;;;;;7.53;4.95;;;;;;;15.59;83.99;101157.88;6208774;23;20127;-81
2023/06/11 04:07:25;;;;;;;5.88;4.80;;;;;;;15.63;83.83;101167.47;6182097;23;20269;-82
2023/06/11 04:09:51;;;;;;;7.72;4.38;;;;;;;15.65;83.67;101159.50;6176456;23;20020;-81
2023/06/11 04:12:18;;;;;;;10.52;4.47;;;;;;;15.63;83.21;101169.22;6156231;23;20063;-81
2023/06/11 04:14:44;;;;;;;9.02;4.97;;;;;;;15.64;83.44;101168.31;6182163;23;20016;-83
2023/06/11 04:17:11;;;;;;;4.75;4.30;;;;;;;15.66;83.19;101169.16;6177810;23;20021;-78
2023/06/11 04:19:37;;;;;;;7.10;3.97;;;;;;;15.67;83.22;101174.41;6205191;23;20040;-84
2023/06/11 04:22:04;;;;;;;6.68;3.85;;;;;;;15.72;82.96;101169.00;6237094;23;20028;-79
2023/06/11 04:24:30;;;;;;;9.60;5.03;;;;;;;15.75;82.77;101174.22;6236379;23;20474;-86
2023/06/11 04:26:58;;;;;;;10.40;4.35;;;;;;;15.79;82.20;101175.03;6240094;22;20023;-80
2023/06/11 04:29:29;;;;;;;6.93;4.10;;;;;;;15.83;82.12;101174.09;6236822;23;20024;-79
2023/06/11 04:31:56;;;;;;;5.38;3.83;;;;;;;15.90;81.87;101174.81;6237224;23;20026;-79
2023/06/11 04:34:29;;;;;;;5.97;4.38;;;;;;;15.96;81.29;101177.34;6239446;22;20026;-81
2023/06/11 04:36:58;;;;;;;5.18;3.60;;;;;;;16.00;80.98;101176.34;6238298;23;20070;-81
2023/06/11 04:39:25;;;;;;;8.48;3.40;;;;;;;16.03;80.75;101173.63;6237175;23;20070;-81
2023/06/11 04:41:52;;;;;;;7.05;4.22;;;;;;;16.08;80.49;101174.38;6207705;23;20109;-80
2023/06/11 04:44:20;;;;;;;11.15;4.70;;;;;;;16.11;80.23;101170.81;6237770;23;20016;-83
2023/06/11 04:46:47;;;;;;;10.40;4.78;;;;;;;16.14;80.25;101171.63;6238528;23;20094;-81
2023/06/11 04:49:20;;;;;;;3.85;3.45;;;;;;;16.20;79.82;101167.94;6238700;23;20101;-79
2023/06/11 04:51:48;;;;;;;6.78;3.90;;;;;;;16.25;79.45;101165.22;6237802;23;20095;-80
2023/06/11 04:54:17;;;;;;;7.40;3.65;;;;;;;16.31;79.16;101178.25;6240439;22;20078;-79
2023/06/11 04:56:44;;;;;;;7.65;3.95;;;;;;;16.34;78.85;101168.47;6238015;23;20024;-80
2023/06/11 04:59:11;;;;;;;7.65;4.00;;;;;;;16.41;78.60;101170.97;6237694;23;20036;-80
2023/06/11 05:01:46;;;;;;;4.30;3.90;;;;;;;16.45;78.37;101168.22;6235964;23;20020;-86
2023/06/11 05:04:14;;;;;;;6.00;4.05;;;;;;;16.49;78.40;101169.88;6211659;23;20116;-82
2023/06/11 05:06:44;;;;;;;9.43;4.60;;;;;;;16.56;77.82;101169.69;6234908;23;20024;-81
2023/06/11 05:09:13;;;;;;;10.85;3.70;;;;;;;16.62;77.49;101170.44;6235870;23;20012;-80
2023/06/11 05:11:44;;;;;;;5.85;4.57;;;;;;;16.65;77.49;101173.00;6209344;23;20422;-80
2023/06/11 05:14:12;;;;;;;4.20;3.80;;;;;;;16.70;77.12;101172.88;6242899;22;20012;-78
2023/06/11 05:16:39;;;;;;;5.38;4.07;;;;;;;16.74;76.86;101176.28;6241162;23;20070;-88
2023/06/11 05:19:05;;;;;;;8.27;4.80;;;;;;;16.77;76.85;101179.72;6239679;22;20481;-89
2023/06/11 05:21:32;;;;;;;8.70;7.30;;;;;;;16.82;76.74;101180.47;6240173;22;20024;-83
2023/06/11 05:24:06;;;;;;;8.52;5.50;;;;;;;16.83;76.35;101179.56;6237882;23;20016;-78
2023/06/11 05:26:35;;;;;;;6.68;4.68;;;;;;;16.84;76.27;101170.75;6240245;22;20020;-84
2023/06/11 05:29:02;;;;;;;8.68;4.90;;;;;;;16.86;76.08;101173.34;6238012;23;20027;-78
2023/06/11 05:31:30;;;;;;;9.43;4.70;;;;;;;16.89;76.19;101173.25;6237618;23;20016;-86
2023/06/11 05:33:57;;;;;;;12.05;4.82;;;;;;;16.94;76.03;101173.16;6237001;23;20019;-81
2023/06/11 05:36:23;;;;;;;5.78;4.97;;;;;;;17.02;75.69;101177.31;6237432;23;20020;-78
2023/06/11 05:38:51;;;;;;;11.57;4.93;;;;;;;17.07;75.38;101173.69;6237702;23;20020;-79
2023/06/11 05:41:18;;;;;;;8.32;5.70;;;;;;;17.10;75.24;101171.81;6263441;22;20334;-79
2023/06/11 05:43:46;;;;;;;12.63;6.50;;;;;;;17.15;75.08;101177.84;6238964;23;20024;-83
2023/06/11 05:46:14;;;;;;;6.10;5.43;;;;;;;17.19;74.70;101178.63;6239465;23;20008;-83
2023/06/11 05:48:41;;;;;;;8.77;5.25;;;;;;;17.23;74.81;101174.97;6212990;23;20024;-79
2023/06/11 05:51:08;;;;;;;8.60;5.32;;;;;;;17.34;74.28;101183.50;6213347;23;20301;-79
2023/06/11 05:53:34;;;;;;;7.68;5.47;;;;;;;17.38;74.33;101180.75;6213278;23;20023;-80
2023/06/11 05:56:03;;;;;;;9.25;5.72;;;;;;;17.42;74.00;101182.41;6213532;23;20398;-81
2023/06/11 05:58:33;;;;;;;7.40;6.53;;;;;;;17.44;73.73;101180.56;6239740;22;20020;-81
2023/06/11 06:01:02;;;;;;;14.35;6.38;;;;;;;17.47;73.69;101191.06;6239848;23;20016;-78
2023/06/11 06:03:33;;;;;;;8.90;6.47;;;;;;;17.52;72.59;101183.84;6240033;23;20016;-78
2023/06/11 06:06:03;;;;;;;8.85;7.20;;;;;;;17.54;72.19;101189.97;6239764;23;20015;-80
2023/06/11 06:08:31;;;;;;;9.77;6.40;;;;;;;17.61;72.41;101191.53;6213799;23;20062;-81
2023/06/11 06:10:58;;;;;;;12.02;7.45;;;;;;;17.70;71.91;101182.44;6240261;22;20015;-83
2023/06/11 06:13:26;;;;;;;9.60;6.70;;;;;;;17.80;71.26;101180.41;6237873;23;20016;-79
2023/06/11 06:15:53;;;;;;;13.38;7.50;;;;;;;17.88;71.20;101188.09;6238757;23;20029;-78
2023/06/11 06:18:20;;;;;;;10.48;6.43;;;;;;;17.93;70.54;101188.88;6213339;22;20102;-79
2023/06/11 06:20:46;;;;;;;8.30;6.75;;;;;;;17.94;70.48;101186.16;6240101;23;20099;-79
2023/06/11 06:23:13;;;;;;;12.63;7.15;;;;;;;18.05;69.68;101188.47;6242347;23;20095;-82
2023/06/11 06:25:39;;;;;;;9.43;6.43;;;;;;;18.12;69.68;101197.97;6240325;23;20016;-78
2023/06/11 06:28:06;;;;;;;8.13;6.70;;;;;;;18.21;69.49;101194.13;6204156;23;20028;-83
2023/06/11 06:30:33;;;;;;;11.35;8.35;;;;;;;18.33;68.94;101195.53;6237647;23;20016;-80
2023/06/11 06:33:01;;;;;;;8.57;6.70;;;;;;;18.43;68.56;101196.09;6238712;23;20016;-80
2023/06/11 06:35:30;;;;;;;12.88;6.45;;;;;;;18.51;68.13;101194.03;6240920;22;20024;-83
2023/06/11 06:37:58;;;;;;;9.48;7.85;;;;;;;18.55;67.48;101197.47;6240488;23;20106;-80
2023/06/11 06:40:25;;;;;;;13.70;6.80;;;;;;;18.48;67.97;101192.34;6241053;23;20054;-78
2023/06/11 06:42:52;;;;;;;11.15;7.05;;;;;;;18.54;67.68;101190.41;6240031;23;20016;-79
2023/06/11 06:45:18;;;;;;;6.97;6.28;;;;;;;18.59;68.00;101192.03;6239361;23;20431;-79
2023/06/11 06:47:44;;;;;;;9.63;6.05;;;;;;;18.65;67.66;101190.94;6238988;23;20016;-79
2023/06/11 06:50:11;;;;;;;7.53;6.65;;;;;;;18.77;67.57;101193.19;6239927;22;20020;-78
2023/06/11 06:52:38;;;;;;;13.15;6.38;;;;;;;18.93;66.95;101195.31;6238948;23;20020;-81
2023/06/11 06:55:05;;;;;;;10.27;6.35;;;;;;;19.02;66.04;101192.34;6238083;23;20019;-79
2023/06/11 06:57:32;;;;;;;10.63;7.18;;;;;;;19.08;64.96;101199.22;6241171;22;20054;-80
2023/06/11 06:59:59;;;;;;;8.15;6.80;;;;;;;19.12;65.13;101200.81;6264606;22;20054;-80
2023/06/11 07:02:25;;;;;;;12.25;7.82;;;;;;;19.17;64.69;101202.38;6237494;23;20030;-80
2023/06/11 07:04:52;;;;;;;9.32;7.68;;;;;;;19.25;64.79;101193.28;6214050;23;20020;-79
2023/06/11 07:07:18;;;;;;;13.50;7.30;;;;;;;19.32;64.25;101194.78;6238399;22;20389;-86
2023/06/11 07:09:45;;;;;;;7.95;6.93;;;;;;;19.42;63.80;101198.81;6239209;23;20328;-80
2023/06/11 07:12:11;;;;;;;8.30;7.30;;;;;;;19.61;63.61;101200.81;6238184;23;20516;-81
2023/06/11 07:14:38;;;;;;;12.45;6.85;;;;;;;19.81;63.06;101202.69;6238464;23;20091;-78
2023/06/11 07:17:04;;;;;;;10.10;7.35;;;;;;;20.00;61.84;101198.41;6238972;23;20009;-80
2023/06/11 07:19:31;;;;;;;8.10;7.20;;;;;;;20.16;61.09;101198.66;6237532;22;20026;-84
2023/06/11 07:21:57;;;;;;;7.47;6.18;;;;;;;20.40;60.01;101198.59;6213007;23;20019;-81
2023/06/11 07:24:24;;;;;;;10.75;6.80;;;;;;;20.65;58.10;101194.91;6237485;23;20078;-82
2023/06/11 07:26:50;;;;;;;9.32;6.97;;;;;;;21.04;56.21;101193.25;6237614;23;20074;-79
2023/06/11 07:29:17;;;;;;;7.72;6.90;;;;;;;21.57;55.49;101197.97;6204272;23;20020;-79
2023/06/11 07:31:43;;;;;;;9.25;6.22;;;;;;;22.10;53.83;101192.84;6233576;23;20115;-82
2023/06/11 07:34:10;;;;;;;7.93;6.28;;;;;;;22.47;51.44;101204.38;6238852;23;20016;-81
2023/06/11 07:36:37;;;;;;;7.63;6.63;;;;;;;23.06;51.09;101190.69;6238007;23;20024;-81
2023/06/11 07:39:03;;;;;;;10.13;6.80;;;;;;;23.62;47.45;101199.28;6213919;23;20074;-78
2023/06/11 07:41:30;;;;;;;7.40;6.72;;;;;;;23.77;47.44;101202.94;6239160;23;20035;-81
2023/06/11 07:43:56;;;;;;;8.88;6.65;;;;;;;24.15;46.60;101199.91;6238915;23;20027;-79
2023/06/11 07:46:23;;;;;;;9.70;6.60;;;;;;;24.47;45.44;101197.19;6237063;23;20070;-80
2023/06/11 07:48:51;;;;;;;6.72;6.03;;;;;;;25.00;46.09;101194.06;6237842;23;20111;-80
2023/06/11 07:51:20;;;;;;;8.52;6.50;;;;;;;25.91;44.43;101193.75;6238907;23;20054;-79
2023/06/11 07:53:46;;;;;;;7.45;6.70;;;;;;;26.05;42.12;101199.09;6237535;23;20073;-79
2023/06/11 07:56:12;;;;;;;7.70;6.53;;;;;;;25.98;42.17;101196.88;6238705;23;20020;-82
2023/06/11 07:58:39;;;;;;;12.30;7.15;;;;;;;26.22;41.35;101203.34;6238865;23;20012;-79
2023/06/11 08:01:06;;;;;;;9.80;6.72;;;;;;;26.55;41.21;101199.34;6239751;23;20688;-86
2023/06/11 08:03:33;;;;;;;7.88;6.50;;;;;;;26.94;39.21;101191.38;6239777;23;20505;-86
2023/06/11 08:05:59;;;;;;;7.95;6.05;;;;;;;26.92;39.06;101195.97;6243117;22;20078;-82
2023/06/11 08:08:26;;;;;;;6.97;6.28;;;;;;;27.25;39.07;101191.91;6213917;23;20024;-79
2023/06/11 08:10:52;;;;;;;6.30;5.55;;;;;;;27.61;38.43;101195.63;6240097;23;20020;-82
2023/06/11 08:13:21;;;;;;;6.03;5.32;;;;;;;28.12;37.47;101197.34;6240282;23;20451;-82
2023/06/11 08:15:48;;;;;;;8.00;5.90;;;;;;;28.53;36.55;101200.56;6241260;22;20028;-82
2023/06/11 08:18:14;;;;;;;6.82;5.03;;;;;;;28.72;36.17;101194.63;6240550;22;20027;-79
2023/06/11 08:20:41;;;;;;;7.10;6.30;;;;;;;29.00;34.47;101206.81;6214816;23;20027;-80
2023/06/11 08:23:07;;;;;;;6.40;5.80;;;;;;;29.10;34.69;101200.69;6238876;23;20020;-90
2023/06/11 08:25:36;;;;;;;6.68;5.95;;;;;;;29.51;34.51;101207.34;6215321;23;20016;-79
2023/06/11 08:28:03;;;;;;;10.38;6.38;;;;;;;30.25;33.27;101201.31;6238012;23;20023;-80
2023/06/11 08:30:29;;;;;;;7.07;6.15;;;;;;;29.97;32.63;101203.63;6233312;23;20016;-80
2023/06/11 08:32:56;;;;;;;9.30;6.50;;;;;;;30.39;31.99;101199.28;6239373;23;20031;-81
2023/06/11 08:35:22;;;;;;;7.05;5.82;;;;;;;30.55;32.07;101204.25;6241102;23;20008;-81
2023/06/11 08:37:49;;;;;;;7.85;6.15;;;;;;;30.45;31.35;101202.31;6236097;23;20019;-80
2023/06/11 08:40:15;;;;;;;6.82;5.97;;;;;;;30.97;30.57;101207.81;6240864;23;20020;-81
2023/06/11 08:42:43;;;;;;;6.13;5.45;;;;;;;31.16;29.81;101200.84;6240558;23;20087;-84
2023/06/11 08:45:09;;;;;;;5.60;5.10;;;;;;;31.67;29.32;101202.63;6242066;23;20432;-80
2023/06/11 08:47:39;;;;;;;5.65;5.05;;;;;;;32.14;28.08;101198.41;6241887;23;20016;-79
2023/06/11 08:50:06;;;;;;;5.72;5.05;;;;;;;32.07;28.49;101202.69;6240421;23;20019;-83
2023/06/11 08:52:35;;;;;;;5.72;5.30;;;;;;;32.55;28.08;101204.53;6239303;23;20451;-81
2023/06/11 08:55:03;;;;;;;11.68;5.55;;;;;;;32.45;27.40;101201.00;6240194;23;20066;-88
2023/06/11 08:57:29;;;;;;;6.78;5.30;;;;;;;32.11;27.19;101204.09;6231179;23;20020;-80
2023/06/11 08:59:56;;;;;;;5.68;4.82;;;;;;;32.18;26.76;101197.16;6212929;23;20031;-82
2023/06/11 09:02:23;;;;;;;5.55;4.75;;;;;;;32.44;27.11;101199.31;6237185;23;20020;-81
2023/06/11 09:04:51;;;;;;;6.72;5.25;;;;;;;32.67;26.58;101197.09;6237634;23;20075;-83
2023/06/11 09:07:24;;;;;;;4.97;4.63;;;;;;;33.20;25.22;101194.88;6235691;23;20028;-86
2023/06/11 09:10:11;;;;;;;7.38;4.53;;;;;;;33.71;24.60;101200.78;6234469;23;20020;-86
2023/06/11 09:12:38;;;;;;;5.28;4.78;;;;;;;33.63;24.27;101198.81;6234891;23;20074;-82
2023/06/11 09:15:06;;;;;;;4.72;4.32;;;;;;;33.66;25.19;101194.94;6235919;23;20020;-81
2023/06/11 09:17:38;;;;;;;5.05;4.57;;;;;;;34.43;23.78;101192.69;6235829;23;20041;-80
2023/06/11 09:20:08;;;;;;;4.55;4.15;;;;;;;34.15;23.94;101184.63;6235030;22;20023;-82
2023/06/11 09:22:37;;;;;;;5.25;4.65;;;;;;;34.90;23.17;101188.78;6209600;23;20035;-82
2023/06/11 09:25:06;;;;;;;4.60;4.22;;;;;;;34.25;22.81;101189.94;6206170;23;20024;-85
2023/06/11 09:27:33;;;;;;;4.90;4.00;;;;;;;34.72;23.10;101194.25;6233449;23;20054;-83
2023/06/11 09:30:18;;;;;;;6.32;3.67;;;;;;;35.05;22.20;101186.34;6207050;23;20102;-81
2023/06/11 09:32:47;;;;;;;5.90;4.88;;;;;;;35.49;21.35;101182.63;6213792;23;20110;-81
2023/06/11 09:35:15;;;;;;;3.70;3.47;;;;;;;35.68;21.13;101184.22;6233959;23;20066;-82
2023/06/11 09:37:49;;;;;;;3.85;3.55;;;;;;;35.38;20.35;101176.47;6213222;23;20020;-81
2023/06/11 09:40:21;;;;;;;4.10;3.80;;;;;;;35.04;21.29;101176.47;6238027;23;20016;-81
2023/06/11 09:42:49;;;;;;;5.47;3.78;;;;;;;35.19;21.45;101183.00;6232097;23;20102;-85
2023/06/11 09:45:19;;;;;;;3.67;3.13;;;;;;;36.19;20.08;101173.25;6236535;22;20034;-80
2023/06/11 09:47:46;;;;;;;4.20;3.85;;;;;;;35.48;19.93;101179.06;6237234;23;20431;-84
2023/06/11 09:50:16;;;;;;;3.55;3.25;;;;;;;34.68;19.75;101182.00;6238661;23;20020;-82
2023/06/11 09:52:45;;;;;;;7.10;3.78;;;;;;;34.48;20.53;101178.63;6237663;23;20026;-81
2023/06/11 09:55:12;;;;;;;4.40;3.90;;;;;;;35.62;20.11;101180.31;6237875;23;20043;-82
2023/06/11 09:57:41;;;;;;;3.33;3.08;;;;;;;36.48;18.31;101191.88;6237541;22;20008;-80
2023/06/11 10:00:11;;;;;;;5.03;3.28;;;;;;;36.14;18.64;101179.25;6236220;23;20020;-87
2023/06/11 10:02:42;;;;;;;3.70;3.30;;;;;;;35.43;19.55;101193.16;6236239;23;20161;-86
2023/06/11 10:05:12;;;;;;;4.32;3.78;;;;;;;35.79;18.46;101183.94;6236844;23;20016;-80
2023/06/11 10:08:06;;;;;;;4.07;3.50;;;;;;;36.22;18.43;101192.03;6236514;23;20020;-80
2023/06/11 10:10:40;;;;;;;4.47;3.42;;;;;;;36.70;18.27;101187.59;6238456;22;20016;-82
2023/06/11 10:13:06;;;;;;;3.22;3.03;;;;;;;36.68;17.78;101194.25;6233664;22;20024;-81
2023/06/11 10:15:36;;;;;;;3.60;3.40;;;;;;;36.05;18.24;101191.13;6233843;23;20019;-87
2023/06/11 10:18:13;;;;;;;4.43;2.78;;;;;;;36.34;18.49;101187.94;6234250;23;20054;-84
2023/06/11 10:20:52;;;;;;;4.15;3.22;;;;;;;36.90;17.21;101188.06;6237386;23;20336;-80
2023/06/11 10:23:19;;;;;;;4.90;3.10;;;;;;;36.85;16.99;101189.63;6237006;23;20162;-79
2023/06/11 10:25:55;;;;;;;2.88;2.58;;;;;;;36.74;17.18;101179.88;6237575;23;20020;-81
2023/06/11 10:28:36;;;;;;;3.40;3.10;;;;;;;37.15;17.31;101182.53;6238531;22;20032;-80
2023/06/11 10:31:03;;;;;;;5.53;2.78;;;;;;;37.64;16.50;101191.53;6238212;23;20016;-88
2023/06/11 10:33:45;;;;;;;4.40;2.65;;;;;;;38.05;15.76;101191.31;6237614;23;20016;-85
2023/06/11 10:36:23;;;;;;;3.38;3.08;;;;;;;37.41;16.19;101186.91;6238174;23;20065;-84
2023/06/11 10:38:49;;;;;;;3.45;3.15;;;;;;;36.55;16.71;101183.84;6237507;23;20046;-80
2023/06/11 10:41:16;;;;;;;3.25;2.90;;;;;;;37.13;17.36;101184.59;6237118;23;20016;-80
2023/06/11 10:43:47;;;;;;;3.45;3.15;;;;;;;37.25;16.05;101183.19;6238313;23;20585;-81
2023/06/11 10:46:19;;;;;;;2.88;2.67;;;;;;;37.48;16.06;101187.88;6237781;23;20082;-82
2023/06/11 10:48:54;;;;;;;4.32;3.10;;;;;;;38.40;15.66;101180.81;6237956;23;20066;-79
2023/06/11 10:51:21;;;;;;;3.17;2.95;;;;;;;38.72;16.50;101182.41;6237237;23;20320;-80
2023/06/11 10:53:59;;;;;;;7.00;3.40;;;;;;;38.82;16.35;101179.38;6238451;23;20096;-89
2023/06/11 10:56:26;;;;;;;5.03;3.53;;;;;;;39.26;16.40;101176.84;6237525;23;20094;-78
2023/06/11 10:58:55;;;;;;;3.83;3.17;;;;;;;39.85;15.42;101179.44;6237604;23;20111;-81
2023/06/11 11:01:22;;;;;;;3.13;2.92;;;;;;;39.78;15.40;101197.72;6236904;23;20015;-82
2023/06/11 11:03:53;;;;;;;4.15;3.13;;;;;;;39.52;15.90;101190.84;6237597;23;20070;-81
2023/06/11 11:06:28;;;;;;;3.00;2.80;;;;;;;39.23;16.56;101179.94;6237534;23;20095;-80
2023/06/11 11:08:56;;;;;;;3.97;3.47;;;;;;;39.60;15.93;101180.84;6237127;22;20449;-81
2023/06/11 11:11:24;;;;;;;4.65;3.13;;;;;;;39.29;15.82;101179.19;6235705;23;20442;-80
2023/06/11 11:13:51;;;;;;;3.53;3.33;;;;;;;39.16;15.87;101180.69;6211405;23;20580;-81
2023/06/11 11:16:21;;;;;;;3.65;3.35;;;;;;;39.90;15.13;101183.50;6210895;23;20016;-86
2023/06/11 11:18:48;;;;;;;2.95;2.80;;;;;;;39.94;15.31;101174.69;6211153;23;20035;-80
2023/06/11 11:21:15;;;;;;;3.95;3.58;;;;;;;39.82;15.41;101174.34;6210929;23;20024;-85
2023/06/11 11:23:49;;;;;;;3.13;2.90;;;;;;;38.97;15.42;101175.78;6236390;23;20016;-81
2023/06/11 11:26:18;;;;;;;3.13;2.92;;;;;;;39.49;15.26;101172.06;6211056;23;20713;-83
2023/06/11 11:28:45;;;;;;;4.97;3.47;;;;;;;39.90;15.52;101170.63;6211251;23;20035;-80